createdAt,value
2022-10-05T00:09:51.208Z,1025.87
2022-10-05T00:23:51.215Z,1025.97
2022-10-05T00:37:51.223Z,1025.95
2022-10-05T00:51:51.221Z,1026.03
2022-10-05T01:37:19.701Z,1025.75
2022-10-05T01:51:19.747Z,1025.76
2022-10-05T02:05:19.794Z,1025.8
2022-10-05T02:19:19.702Z,1025.75
2022-10-05T02:33:19.700Z,1025.77
2022-10-05T02:47:19.688Z,1025.94
2022-10-05T03:01:19.811Z,1025.8899999999999
2022-10-05T03:15:19.713Z,1026.01
2022-10-05T03:29:19.717Z,1025.96
2022-10-05T03:43:19.713Z,1026.02
2022-10-05T03:57:19.723Z,1025.98
2022-10-05T04:11:19.698Z,1026
2022-10-05T04:25:19.701Z,1025.85
2022-10-05T04:39:19.748Z,1025.9299999999998
2022-10-05T04:53:19.739Z,1025.98
2022-10-05T05:07:19.817Z,1026.05
2022-10-05T05:22:19.867Z,1026.1599999999999
2022-10-05T05:37:20.108Z,1026.3400000000001
2022-10-05T05:52:20.017Z,1026.3899999999999
2022-10-05T06:07:20.000Z,1026.51
2022-10-05T06:22:20.419Z,1026.72
2022-10-05T06:37:20.560Z,1026.8600000000001
2022-10-05T06:52:20.822Z,1026.78
2022-10-05T07:07:20.861Z,1026.85
2022-10-05T07:22:20.853Z,1026.99
2022-10-05T07:37:20.875Z,1026.99
2022-10-05T07:52:20.912Z,1027.1100000000001
2022-10-05T08:07:21.007Z,1027.0700000000002
2022-10-05T08:22:20.898Z,1027.2
2022-10-05T08:37:20.938Z,1027.1799999999998
2022-10-05T08:52:20.932Z,1027.4099999999999
2022-10-05T09:07:20.978Z,1027.48
2022-10-05T09:22:20.977Z,1027.53
2022-10-05T09:37:20.978Z,1027.48
2022-10-05T09:53:20.992Z,1027.46
2022-10-05T10:08:20.996Z,1027.47
2022-10-05T10:23:21.028Z,1027.6100000000001
2022-10-05T10:38:21.404Z,1027.62
2022-10-05T10:53:21.326Z,1027.8400000000001
2022-10-05T11:09:56.256Z,1027.7
2022-10-05T11:24:56.231Z,1027.55
2022-10-05T11:39:56.291Z,1027.46
2022-10-05T11:55:10.203Z,1027.4099999999999
2022-10-05T12:09:56.338Z,1027.3200000000002
2022-10-05T12:24:56.347Z,1027.25
2022-10-05T12:39:56.456Z,1027.3
2022-10-05T12:54:58.836Z,1027.1599999999999
2022-10-05T13:09:56.560Z,1027.0700000000002
2022-10-05T13:24:57.250Z,1027.08
2022-10-05T13:39:58.111Z,1027.0900000000001
2022-10-05T13:54:57.671Z,1027.03
2022-10-05T14:09:57.638Z,1026.95
2022-10-05T14:24:57.726Z,1026.85
2022-10-05T14:39:57.678Z,1026.8400000000001
2022-10-05T14:54:57.820Z,1026.77
2022-10-05T15:09:57.836Z,1026.6399999999999
2022-10-05T15:24:57.923Z,1026.6100000000001
2022-10-05T15:39:57.946Z,1026.54
2022-10-05T15:54:57.998Z,1026.48
2022-10-05T16:09:57.956Z,1026.63
2022-10-05T16:24:57.962Z,1026.6100000000001
2022-10-05T16:39:58.056Z,1026.69
2022-10-05T16:55:58.077Z,1026.67
2022-10-05T17:10:58.039Z,1026.81
2022-10-05T17:25:58.077Z,1026.83
2022-10-05T17:46:29.734Z,1026.8
2022-10-05T18:00:30.220Z,1026.79
2022-10-05T18:14:30.440Z,1026.92
2022-10-05T18:28:30.762Z,1026.9299999999998
2022-10-05T18:42:30.742Z,1026.9099999999999
2022-10-05T18:56:30.822Z,1026.96
2022-10-05T19:10:30.988Z,1026.8
2022-10-05T19:24:31.077Z,1026.9099999999999
2022-10-05T19:38:31.426Z,1026.97
2022-10-05T19:52:31.616Z,1027.12
2022-10-05T20:06:31.284Z,1027.23
2022-10-05T20:20:31.282Z,1027.27
2022-10-05T20:34:31.692Z,1027.24
2022-10-05T20:48:31.947Z,1027.3600000000001
2022-10-05T21:02:31.762Z,1027.33
2022-10-05T21:16:31.864Z,1027.37
2022-10-05T21:30:31.455Z,1027.23
2022-10-05T21:44:31.473Z,1027.05
2022-10-05T21:58:32.032Z,1027.03
2022-10-05T22:12:31.517Z,1027.04
2022-10-05T22:26:31.551Z,1026.95
2022-10-05T22:40:31.534Z,1026.8600000000001
2022-10-05T22:54:34.290Z,1026.8200000000002
2022-10-05T23:08:31.957Z,1026.8600000000001
2022-10-05T23:22:31.624Z,1026.8400000000001
2022-10-05T23:36:31.659Z,1026.8899999999999
2022-10-05T23:50:31.629Z,1026.83
